Time;durP1;ratioP1;P1;durP2;ratioP2;P2;SDS_P1;SDS_P2;PMS_P1;PMS_P2;Temp;Humidity;BMP_temperature;BMP_pressure;BME280_temperature;BME280_humidity;BME280_pressure;Samples;Min_cycle;Max_cycle;Signal;HPM_P1;HPM_P2
2022/11/08 00:01:33;;;;;;;0.17;0.17;;;;;;;7.45;100.00;96312.56;4916036;29;20075;-75
2022/11/08 00:04:20;;;;;;;0.10;0.10;;;;;;;7.43;100.00;96312.00;4914057;29;20048;-75
2022/11/08 00:16:19;;;;;;;0.10;0.10;;;;;;;7.36;100.00;96321.94;4915372;29;20519;-75
2022/11/08 00:19:05;;;;;;;0.10;0.10;;;;;;;7.36;100.00;96323.81;4915454;29;20044;-75
2022/11/08 00:21:51;;;;;;;0.20;0.20;;;;;;;7.34;100.00;96317.91;4914902;29;20074;-74
2022/11/08 00:24:37;;;;;;;0.10;0.10;;;;;;;7.30;100.00;96304.25;4914153;29;20167;-75
2022/11/08 00:27:25;;;;;;;0.10;0.10;;;;;;;7.35;100.00;96316.88;4915857;29;20044;-74
2022/11/08 00:30:11;;;;;;;0.10;0.10;;;;;;;7.32;100.00;96309.34;4913549;29;20040;-75
2022/11/08 00:32:56;;;;;;;0.20;0.20;;;;;;;7.34;100.00;96312.59;4915185;29;20068;-75
2022/11/08 00:35:42;;;;;;;0.10;0.10;;;;;;;7.38;100.00;96313.72;4902721;29;20040;-75
2022/11/08 00:38:28;;;;;;;0.10;0.10;;;;;;;7.39;100.00;96304.69;4913491;29;20091;-75
2022/11/08 00:41:14;;;;;;;0.20;0.20;;;;;;;7.39;100.00;96305.53;4894894;29;20095;-74
2022/11/08 00:44:00;;;;;;;0.13;0.13;;;;;;;7.46;100.00;96308.88;4914218;29;20051;-74
2022/11/08 00:46:46;;;;;;;0.10;0.10;;;;;;;7.42;100.00;96307.72;4913118;29;20181;-75
2022/11/08 00:49:32;;;;;;;0.10;0.10;;;;;;;7.45;100.00;96309.09;4915018;29;20055;-75
2022/11/08 00:52:18;;;;;;;0.10;0.10;;;;;;;7.42;100.00;96314.91;4916092;29;20044;-74
2022/11/08 00:55:04;;;;;;;0.10;0.10;;;;;;;7.31;100.00;96294.41;4915097;29;20063;-75
2022/11/08 00:57:50;;;;;;;0.10;0.10;;;;;;;7.22;100.00;96297.41;4916202;29;20585;-75
2022/11/08 01:00:36;;;;;;;0.10;0.10;;;;;;;7.22;100.00;96302.72;4916091;29;20571;-74
2022/11/08 01:03:23;;;;;;;0.25;0.20;;;;;;;7.27;100.00;96296.72;4913511;29;20539;-75
2022/11/08 01:06:10;;;;;;;0.10;0.10;;;;;;;7.27;100.00;96299.38;4895472;29;20561;-75
2022/11/08 01:08:56;;;;;;;0.20;0.20;;;;;;;7.25;100.00;96301.47;4895599;29;20119;-75
2022/11/08 01:11:45;;;;;;;0.20;0.20;;;;;;;7.29;100.00;96302.63;4915441;29;20075;-75
2022/11/08 01:14:31;;;;;;;0.10;0.10;;;;;;;7.30;100.00;96288.25;4914576;29;20534;-75
2022/11/08 01:17:16;;;;;;;0.10;0.10;;;;;;;7.25;100.00;96283.66;4912438;29;20063;-75
2022/11/08 01:20:03;;;;;;;0.10;0.10;;;;;;;7.22;100.00;96289.41;4915369;29;20075;-75
2022/11/08 01:22:48;;;;;;;0.10;0.10;;;;;;;7.21;100.00;96287.00;4913707;29;20043;-74
2022/11/08 01:25:36;;;;;;;0.10;0.10;;;;;;;7.13;100.00;96284.69;4915959;29;20414;-74
2022/11/08 01:28:22;;;;;;;0.10;0.10;;;;;;;7.15;100.00;96293.25;4918141;29;20416;-75
2022/11/08 01:31:14;;;;;;;0.10;0.10;;;;;;;7.09;100.00;96287.00;4919558;29;20044;-75
2022/11/08 01:34:00;;;;;;;0.10;0.10;;;;;;;7.05;100.00;96283.16;4916366;29;20062;-75
2022/11/08 01:36:46;;;;;;;0.10;0.10;;;;;;;7.08;100.00;96289.88;4918504;29;20039;-74
2022/11/08 01:39:32;;;;;;;0.10;0.10;;;;;;;7.10;100.00;96293.94;4915339;29;20385;-75
2022/11/08 01:42:26;;;;;;;0.10;0.10;;;;;;;7.10;100.00;96285.16;4916814;29;20138;-76
2022/11/08 01:45:12;;;;;;;0.13;0.13;;;;;;;7.06;100.00;96282.13;4916742;29;20518;-76
2022/11/08 01:47:58;;;;;;;0.10;0.10;;;;;;;7.09;100.00;96283.53;4917169;29;20075;-76
2022/11/08 01:50:44;;;;;;;1.45;0.63;;;;;;;7.16;100.00;96276.22;4918428;29;20047;-76
2022/11/08 01:53:30;;;;;;;1.63;0.90;;;;;;;7.25;100.00;96280.19;4915977;29;20036;-76
2022/11/08 01:56:18;;;;;;;1.88;0.90;;;;;;;7.16;100.00;96279.72;4917962;29;20478;-76
2022/11/08 01:59:09;;;;;;;2.00;1.15;;;;;;;7.22;100.00;96280.63;4918543;29;20047;-75
2022/11/08 02:01:55;;;;;;;2.30;1.17;;;;;;;7.27;100.00;96272.78;4916878;29;20047;-76
2022/11/08 02:04:42;;;;;;;2.60;1.20;;;;;;;7.19;100.00;96260.63;4915203;29;20122;-76
2022/11/08 02:07:31;;;;;;;1.67;0.80;;;;;;;7.31;100.00;96265.13;4930124;28;20218;-75
2022/11/08 02:10:18;;;;;;;1.63;0.82;;;;;;;7.32;100.00;96264.09;4915487;29;20043;-75
2022/11/08 02:13:08;;;;;;;1.38;0.70;;;;;;;7.28;100.00;96261.09;4916532;29;20039;-75
2022/11/08 02:15:55;;;;;;;1.60;0.70;;;;;;;7.25;100.00;96264.22;4918759;29;20314;-75
2022/11/08 02:18:46;;;;;;;1.63;0.82;;;;;;;7.21;100.00;96260.38;4902699;29;20052;-73
2022/11/08 02:21:48;;;;;;;3.00;1.60;;;;;;;7.24;100.00;96263.41;4915863;29;20075;-75
2022/11/08 02:24:35;;;;;;;1.67;0.80;;;;;;;7.28;100.00;96263.75;4914584;29;20462;-75
2022/11/08 02:27:20;;;;;;;2.70;1.45;;;;;;;7.29;100.00;96261.88;4916009;29;20046;-74
2022/11/08 02:30:07;;;;;;;3.30;1.77;;;;;;;7.28;100.00;96255.75;4915495;29;20051;-75
2022/11/08 02:32:53;;;;;;;1.98;1.17;;;;;;;7.29;100.00;96252.06;4915167;29;20050;-75
2022/11/08 02:35:38;;;;;;;3.17;1.80;;;;;;;7.40;100.00;96253.09;4916515;29;20067;-75
2022/11/08 02:38:25;;;;;;;2.72;1.48;;;;;;;7.55;100.00;96237.47;4917514;29;20657;-75
2022/11/08 02:41:11;;;;;;;3.05;1.67;;;;;;;7.53;100.00;96240.31;4915984;29;20047;-74
2022/11/08 02:43:57;;;;;;;2.75;1.45;;;;;;;7.59;100.00;96238.59;4917080;29;20435;-75
2022/11/08 02:46:43;;;;;;;1.90;0.90;;;;;;;7.71;100.00;96236.72;4916189;29;20039;-75
2022/11/08 02:49:29;;;;;;;4.38;2.55;;;;;;;7.71;100.00;96242.06;4916726;29;21018;-75
2022/11/08 02:52:15;;;;;;;2.25;1.27;;;;;;;7.87;100.00;96232.50;4916279;29;20071;-74
2022/11/08 02:55:00;;;;;;;2.60;1.30;;;;;;;7.88;100.00;96230.66;4916702;29;20565;-74
2022/11/08 02:57:46;;;;;;;2.05;1.05;;;;;;;7.80;100.00;96221.19;4912094;29;20059;-75
2022/11/08 03:00:33;;;;;;;2.63;1.30;;;;;;;7.80;100.00;96219.31;4916091;29;20067;-74
2022/11/08 03:03:19;;;;;;;2.83;1.27;;;;;;;7.87;100.00;96223.72;4914740;29;20047;-75
2022/11/08 03:06:05;;;;;;;2.30;1.02;;;;;;;7.93;100.00;96217.41;4916213;29;20416;-74
2022/11/08 03:08:50;;;;;;;1.90;0.85;;;;;;;7.93;100.00;96206.75;4913715;29;20298;-74
2022/11/08 03:11:36;;;;;;;1.85;0.80;;;;;;;7.96;100.00;96207.09;4914273;29;20075;-74
2022/11/08 03:14:22;;;;;;;2.35;1.00;;;;;;;7.95;100.00;96202.81;4915506;29;20326;-75
2022/11/08 03:17:08;;;;;;;1.40;0.70;;;;;;;7.90;100.00;96186.72;4916758;29;20056;-75
2022/11/08 03:19:55;;;;;;;1.77;0.70;;;;;;;7.87;100.00;96186.41;4915832;29;20110;-75
2022/11/08 03:22:40;;;;;;;1.48;0.63;;;;;;;7.84;100.00;96201.00;4915987;29;20137;-75
2022/11/08 03:25:26;;;;;;;1.60;0.70;;;;;;;7.95;100.00;96186.84;4916021;29;20052;-75
2022/11/08 03:28:12;;;;;;;0.70;0.40;;;;;;;7.84;100.00;96182.34;4914989;29;20052;-75
2022/11/08 03:30:58;;;;;;;0.70;0.30;;;;;;;7.89;100.00;96169.13;4915587;29;20722;-75
2022/11/08 03:33:44;;;;;;;1.30;0.50;;;;;;;7.96;100.00;96171.66;4917013;29;20074;-75
2022/11/08 03:36:30;;;;;;;0.60;0.30;;;;;;;8.00;100.00;96156.78;4914635;29;20130;-75
2022/11/08 03:39:15;;;;;;;1.23;0.50;;;;;;;8.07;100.00;96152.13;4915790;29;20071;-75
2022/11/08 03:42:03;;;;;;;1.20;0.50;;;;;;;8.06;100.00;96151.31;4916660;29;20084;-75
2022/11/08 03:44:49;;;;;;;0.65;0.30;;;;;;;8.00;100.00;96154.94;4915477;29;20062;-75
2022/11/08 03:47:40;;;;;;;0.88;0.40;;;;;;;8.05;100.00;96157.72;4915139;29;20475;-75
2022/11/08 03:50:27;;;;;;;1.10;0.50;;;;;;;7.88;100.00;96156.88;4915084;29;20043;-75
2022/11/08 03:53:13;;;;;;;0.60;0.30;;;;;;;7.92;100.00;96163.31;4897576;29;20044;-74
2022/11/08 03:56:00;;;;;;;0.35;0.22;;;;;;;7.84;100.00;96155.72;4901508;29;20051;-75
2022/11/08 03:58:46;;;;;;;0.30;0.20;;;;;;;7.86;100.00;96145.66;4912912;29;20047;-74
2022/11/08 04:01:32;;;;;;;0.10;0.10;;;;;;;7.91;100.00;96150.25;4914944;29;20632;-75
2022/11/08 04:04:18;;;;;;;0.10;0.10;;;;;;;7.87;100.00;96149.13;4913885;29;20100;-75
2022/11/08 04:07:04;;;;;;;0.10;0.10;;;;;;;7.79;100.00;96150.31;4914277;29;20091;-75
2022/11/08 04:09:49;;;;;;;0.10;0.10;;;;;;;7.81;100.00;96138.34;4917265;29;20056;-74
2022/11/08 04:15:46;;;;;;;0.10;0.10;;;;;;;7.65;100.00;96136.47;4914742;29;20043;-75
2022/11/08 04:21:36;;;;;;;0.10;0.10;;;;;;;7.65;100.00;96120.47;4915423;29;20079;-74
2022/11/08 04:24:22;;;;;;;0.20;0.20;;;;;;;7.62;100.00;96120.94;4913970;29;20055;-75
2022/11/08 04:27:08;;;;;;;0.10;0.10;;;;;;;7.51;100.00;96111.97;4916126;29;20332;-74
2022/11/08 04:29:54;;;;;;;0.10;0.10;;;;;;;7.54;100.00;96122.13;4887409;29;20059;-75
2022/11/08 04:32:40;;;;;;;0.20;0.20;;;;;;;7.58;100.00;96125.13;4912088;29;20447;-75
2022/11/08 04:35:27;;;;;;;0.20;0.20;;;;;;;7.53;100.00;96114.38;4915427;29;20122;-75
2022/11/08 04:38:13;;;;;;;0.10;0.10;;;;;;;7.44;100.00;96119.28;4914179;29;20065;-76
2022/11/08 04:41:04;;;;;;;0.10;0.10;;;;;;;7.34;100.00;96111.09;4915606;29;20095;-74
2022/11/08 04:43:51;;;;;;;0.10;0.10;;;;;;;7.19;100.00;96100.94;4902243;29;20327;-75
2022/11/08 04:46:37;;;;;;;0.20;0.20;;;;;;;7.23;100.00;96101.28;4915556;29;20652;-75
2022/11/08 04:49:22;;;;;;;0.10;0.10;;;;;;;7.30;100.00;96093.97;4913353;29;20043;-75
2022/11/08 04:52:08;;;;;;;0.13;0.13;;;;;;;7.32;100.00;96083.91;4915722;29;20044;-75
2022/11/08 04:54:54;;;;;;;0.10;0.10;;;;;;;7.37;100.00;96091.16;4910985;29;20277;-75
2022/11/08 04:57:40;;;;;;;0.10;0.10;;;;;;;7.32;100.00;96075.94;4913216;29;20342;-74
2022/11/08 05:00:26;;;;;;;0.10;0.10;;;;;;;7.34;100.00;96081.81;4916908;29;20048;-74
2022/11/08 05:03:12;;;;;;;0.10;0.10;;;;;;;7.32;100.00;96072.47;4920901;29;20506;-74
2022/11/08 05:06:03;;;;;;;0.10;0.10;;;;;;;7.29;100.00;96071.06;4920339;29;20047;-75
2022/11/08 05:08:49;;;;;;;0.10;0.10;;;;;;;7.21;100.00;96066.91;4918272;29;20043;-74
2022/11/08 05:11:35;;;;;;;0.10;0.10;;;;;;;7.16;100.00;96060.69;4919715;29;20047;-74
2022/11/08 05:14:20;;;;;;;0.10;0.10;;;;;;;7.11;100.00;96068.59;4904773;29;20040;-75
2022/11/08 05:17:06;;;;;;;0.10;0.10;;;;;;;7.03;100.00;96058.31;4920373;29;20142;-75
2022/11/08 05:26:05;;;;;;;0.10;0.10;;;;;;;7.04;100.00;96060.72;4920711;29;20118;-75
2022/11/08 05:28:51;;;;;;;0.10;0.10;;;;;;;6.96;100.00;96074.41;4918193;29;20620;-75
2022/11/08 05:31:38;;;;;;;0.10;0.10;;;;;;;6.89;100.00;96063.06;4932291;28;20358;-75
2022/11/08 05:34:24;;;;;;;0.10;0.10;;;;;;;6.76;100.00;96072.09;4917223;29;20466;-75
2022/11/08 05:37:10;;;;;;;0.10;0.10;;;;;;;6.71;100.00;96061.38;4921662;29;20119;-75
2022/11/08 05:39:56;;;;;;;0.10;0.10;;;;;;;6.69;100.00;96050.16;4918824;29;20054;-74
2022/11/08 05:42:42;;;;;;;0.10;0.10;;;;;;;6.72;100.00;96060.34;4918509;29;20319;-75
2022/11/08 05:45:28;;;;;;;0.17;0.10;;;;;;;6.66;100.00;96064.72;4918471;29;20051;-75
2022/11/08 05:48:13;;;;;;;0.10;0.10;;;;;;;6.70;100.00;96057.09;4920536;29;20047;-75
2022/11/08 05:50:59;;;;;;;0.75;0.30;;;;;;;6.80;100.00;96053.84;4921169;29;20047;-75
2022/11/08 05:53:48;;;;;;;0.10;0.10;;;;;;;6.80;100.00;96059.16;4916918;29;20580;-76
2022/11/08 05:56:34;;;;;;;0.70;0.40;;;;;;;6.77;100.00;96055.13;4918641;29;20044;-76
2022/11/08 05:59:20;;;;;;;0.85;0.40;;;;;;;6.71;100.00;96050.75;4903425;29;20048;-76
2022/11/08 06:02:06;;;;;;;0.30;0.20;;;;;;;6.68;100.00;96049.34;4921243;29;20047;-76
2022/11/08 06:04:51;;;;;;;0.30;0.20;;;;;;;6.66;100.00;96053.28;4921329;29;20359;-76
2022/11/08 06:07:37;;;;;;;0.20;0.20;;;;;;;6.68;100.00;96043.22;4918311;29;21933;-76
2022/11/08 06:10:24;;;;;;;0.10;0.10;;;;;;;6.63;100.00;96041.28;4918822;29;20047;-76
2022/11/08 06:13:09;;;;;;;0.10;0.10;;;;;;;6.69;100.00;96034.19;4917596;29;20122;-75
2022/11/08 06:15:58;;;;;;;0.10;0.10;;;;;;;6.70;100.00;96030.53;4917607;29;20665;-76
2022/11/08 06:18:45;;;;;;;0.10;0.10;;;;;;;6.65;100.00;96020.56;4916305;29;20055;-76
2022/11/08 06:21:31;;;;;;;0.10;0.10;;;;;;;6.63;100.00;96001.41;4919877;29;20048;-76
2022/11/08 06:24:17;;;;;;;0.10;0.10;;;;;;;6.57;100.00;95993.53;4917989;29;20129;-75
2022/11/08 06:27:04;;;;;;;0.10;0.10;;;;;;;6.45;100.00;96004.19;4920684;29;20622;-75
2022/11/08 06:29:49;;;;;;;0.10;0.10;;;;;;;6.39;100.00;95999.81;4917813;29;20048;-75
2022/11/08 06:32:35;;;;;;;0.10;0.10;;;;;;;6.35;100.00;96018.06;4918183;29;20090;-75
2022/11/08 06:35:21;;;;;;;0.20;0.20;;;;;;;6.31;100.00;96014.25;4919184;29;20139;-75
2022/11/08 06:38:07;;;;;;;0.10;0.10;;;;;;;6.28;100.00;96013.91;4919885;29;20079;-74
2022/11/08 06:40:53;;;;;;;0.10;0.10;;;;;;;6.30;100.00;96023.28;4930592;28;20051;-75
2022/11/08 06:43:39;;;;;;;0.10;0.10;;;;;;;6.30;100.00;96023.28;4917844;29;20044;-74
2022/11/08 06:46:25;;;;;;;0.10;0.10;;;;;;;6.29;100.00;96018.16;4918246;29;20039;-75
2022/11/08 06:49:11;;;;;;;0.10;0.10;;;;;;;6.24;100.00;96031.38;4916686;29;20043;-75
2022/11/08 06:51:57;;;;;;;0.10;0.10;;;;;;;6.23;100.00;96032.41;4919845;29;20126;-75
2022/11/08 06:54:42;;;;;;;0.10;0.10;;;;;;;6.27;100.00;96022.91;4915948;29;20075;-75
2022/11/08 06:57:28;;;;;;;0.10;0.10;;;;;;;6.29;100.00;96037.59;4915723;29;20050;-74
2022/11/08 07:00:15;;;;;;;0.20;0.20;;;;;;;6.32;100.00;96039.78;4917006;29;20676;-75
2022/11/08 07:03:02;;;;;;;0.10;0.10;;;;;;;6.35;100.00;96039.31;4917106;29;20052;-75
2022/11/08 07:05:48;;;;;;;0.10;0.10;;;;;;;6.38;100.00;96038.88;4918140;29;20044;-75
2022/11/08 07:08:34;;;;;;;0.10;0.10;;;;;;;6.45;100.00;96032.59;4900104;29;20307;-76
2022/11/08 07:11:20;;;;;;;0.10;0.10;;;;;;;6.51;100.00;96040.47;4917572;29;20621;-76
2022/11/08 07:14:06;;;;;;;0.10;0.10;;;;;;;6.53;100.00;96042.88;4918178;29;20043;-75
2022/11/08 07:16:54;;;;;;;0.10;0.10;;;;;;;6.58;100.00;96053.63;4917511;29;20074;-75
2022/11/08 07:19:42;;;;;;;0.10;0.10;;;;;;;6.61;100.00;96040.69;4903403;29;20052;-74
2022/11/08 07:22:28;;;;;;;0.10;0.10;;;;;;;6.65;100.00;96055.13;4917814;29;20059;-74
2022/11/08 07:25:14;;;;;;;0.10;0.10;;;;;;;6.64;100.00;96050.88;4918910;29;20044;-74
2022/11/08 07:28:03;;;;;;;0.10;0.10;;;;;;;6.79;100.00;96061.03;4918882;29;20151;-75
2022/11/08 07:30:49;;;;;;;0.10;0.10;;;;;;;6.82;100.00;96057.88;4916818;29;20039;-75
2022/11/08 07:33:35;;;;;;;0.10;0.10;;;;;;;6.82;100.00;96059.72;4917245;29;20035;-74
2022/11/08 07:36:20;;;;;;;0.10;0.10;;;;;;;6.79;100.00;96063.69;4918822;29;20043;-76
2022/11/08 07:39:06;;;;;;;0.13;0.13;;;;;;;6.86;100.00;96069.69;4919932;28;20063;-77
2022/11/08 07:41:52;;;;;;;0.10;0.10;;;;;;;6.90;100.00;96067.34;4919668;29;20410;-76
2022/11/08 07:44:38;;;;;;;0.10;0.10;;;;;;;6.98;100.00;96067.78;4917256;29;20043;-77
2022/11/08 07:47:24;;;;;;;0.20;0.20;;;;;;;7.07;100.00;96057.59;4916996;29;20326;-76
2022/11/08 07:50:10;;;;;;;0.15;0.15;;;;;;;7.25;100.00;96054.78;4920006;29;20098;-77
2022/11/08 07:52:57;;;;;;;0.10;0.10;;;;;;;7.16;100.00;96071.31;4918416;29;20474;-77
2022/11/08 07:55:44;;;;;;;0.10;0.10;;;;;;;7.13;100.00;96061.97;4915985;29;20047;-76
2022/11/08 07:58:30;;;;;;;0.10;0.10;;;;;;;7.00;100.00;96043.59;4919565;29;20555;-77
2022/11/08 08:01:17;;;;;;;0.15;0.13;;;;;;;7.01;100.00;96061.22;4919065;29;20056;-77
2022/11/08 08:04:03;;;;;;;0.17;0.17;;;;;;;6.96;100.00;96058.44;4918224;29;20051;-76
2022/11/08 08:06:49;;;;;;;0.10;0.10;;;;;;;7.05;100.00;96062.34;4905490;29;20125;-77
2022/11/08 08:09:35;;;;;;;0.10;0.10;;;;;;;7.06;100.00;96065.81;4917818;29;20127;-76
2022/11/08 08:12:21;;;;;;;0.20;0.20;;;;;;;7.15;100.00;96067.06;4917258;29;20051;-77
2022/11/08 08:15:07;;;;;;;0.10;0.10;;;;;;;7.16;100.00;96071.31;4917758;29;20427;-76
2022/11/08 08:17:53;;;;;;;0.10;0.10;;;;;;;7.20;100.00;96067.97;4917669;29;20538;-77
2022/11/08 08:20:40;;;;;;;0.10;0.10;;;;;;;7.34;100.00;96073.84;4903297;29;20043;-77
2022/11/08 08:23:26;;;;;;;0.13;0.13;;;;;;;7.58;100.00;96081.72;4916635;29;20043;-77
2022/11/08 08:26:12;;;;;;;0.10;0.10;;;;;;;7.73;100.00;96077.47;4914236;29;20040;-75
2022/11/08 08:28:57;;;;;;;0.10;0.10;;;;;;;7.97;100.00;96085.34;4918500;29;20048;-76
2022/11/08 08:31:43;;;;;;;0.10;0.10;;;;;;;8.21;100.00;96086.00;4918661;29;20078;-76
2022/11/08 08:34:29;;;;;;;0.20;0.20;;;;;;;8.30;100.00;96081.88;4916672;29;20678;-75
2022/11/08 08:37:16;;;;;;;0.10;0.10;;;;;;;8.40;100.00;96067.94;4922999;29;20392;-75
2022/11/08 08:40:02;;;;;;;0.10;0.10;;;;;;;8.45;100.00;96071.47;4918486;29;20043;-76
2022/11/08 08:42:48;;;;;;;0.10;0.10;;;;;;;8.62;100.00;96069.59;4920543;29;20043;-75
2022/11/08 08:45:35;;;;;;;0.10;0.10;;;;;;;8.68;100.00;96069.69;4919388;29;20495;-76
2022/11/08 08:48:21;;;;;;;0.20;0.20;;;;;;;8.69;100.00;96061.41;4922922;29;20048;-75
2022/11/08 08:51:06;;;;;;;0.20;0.20;;;;;;;8.76;100.00;96061.25;4923026;29;20146;-76
2022/11/08 08:53:52;;;;;;;0.20;0.20;;;;;;;8.96;100.00;96050.84;4567833;28;9999628;-76
2022/11/08 08:56:38;;;;;;;0.20;0.20;;;;;;;8.98;100.00;96059.41;4918230;29;20178;-75
2022/11/08 08:59:26;;;;;;;0.20;0.20;;;;;;;9.05;100.00;96053.91;4918271;29;20235;-75
2022/11/08 09:02:13;;;;;;;0.15;0.15;;;;;;;9.17;100.00;96054.56;4917027;28;20309;-75
2022/11/08 09:04:59;;;;;;;0.10;0.10;;;;;;;9.36;100.00;96049.72;4929567;28;20051;-76
2022/11/08 09:07:45;;;;;;;0.20;0.20;;;;;;;9.55;100.00;96045.63;4917119;29;20047;-75
2022/11/08 09:10:30;;;;;;;0.15;0.15;;;;;;;9.63;100.00;96042.50;4903654;29;20717;-77
2022/11/08 09:13:16;;;;;;;0.20;0.20;;;;;;;9.88;100.00;96047.28;4917957;29;20055;-75
2022/11/08 09:16:02;;;;;;;0.17;0.17;;;;;;;10.26;100.00;96048.16;4916436;29;20106;-75
2022/11/08 09:18:48;;;;;;;0.10;0.10;;;;;;;10.51;100.00;96050.25;4916970;29;20044;-75
2022/11/08 09:21:34;;;;;;;0.20;0.20;;;;;;;10.49;100.00;96047.00;4917547;29;20510;-76
2022/11/08 09:24:20;;;;;;;0.20;0.20;;;;;;;10.93;100.00;96044.84;4914093;29;20507;-75
2022/11/08 09:27:06;;;;;;;0.20;0.20;;;;;;;11.63;100.00;96043.50;4918349;29;20345;-75
2022/11/08 09:29:52;;;;;;;0.20;0.20;;;;;;;12.15;100.00;96036.34;4916127;29;20038;-75
2022/11/08 09:32:37;;;;;;;0.20;0.20;;;;;;;12.65;100.00;96045.44;4910982;29;20083;-74
2022/11/08 09:35:23;;;;;;;0.30;0.30;;;;;;;13.14;100.00;96028.63;4915697;29;20526;-75
2022/11/08 09:38:09;;;;;;;0.30;0.30;;;;;;;13.22;100.00;96034.28;4916857;29;20381;-75
2022/11/08 09:40:58;;;;;;;0.20;0.20;;;;;;;13.96;100.00;96029.84;4917337;29;20055;-75
2022/11/08 09:44:07;;;;;;;0.20;0.20;;;;;;;14.23;100.00;96015.91;4916854;29;20138;-76
2022/11/08 09:47:01;;;;;;;0.30;0.30;;;;;;;15.31;100.00;96014.53;4908678;29;20043;-76
2022/11/08 09:50:27;;;;;;;0.20;0.20;;;;;;;15.82;97.96;96027.38;4918485;29;20640;-76
2022/11/08 09:53:44;;;;;;;0.22;0.22;;;;;;;16.30;91.11;96029.06;4917378;29;20047;-75
2022/11/08 09:56:33;;;;;;;0.30;0.30;;;;;;;16.60;88.51;96019.66;4914794;29;20051;-76
2022/11/08 09:59:44;;;;;;;0.20;0.20;;;;;;;17.12;84.31;96033.84;4914886;29;20047;-76
2022/11/08 10:02:33;;;;;;;0.20;0.20;;;;;;;17.17;80.73;96031.03;4915823;29;20056;-75
2022/11/08 10:05:19;;;;;;;0.25;0.25;;;;;;;16.86;86.56;96036.22;4899670;29;20051;-76
2022/11/08 10:08:40;;;;;;;0.20;0.20;;;;;;;17.75;74.66;96025.00;4903425;29;20079;-76
2022/11/08 10:12:01;;;;;;;0.10;0.10;;;;;;;14.17;100.00;96050.13;4901971;29;20039;-76
2022/11/08 10:15:02;;;;;;;;;;;;;;;12.92;100.00;96045.91;4890574;29;20066;-75
2022/11/08 10:18:26;;;;;;;0.20;0.20;;;;;;;12.37;100.00;96063.69;4562108;28;9999762;-75
2022/11/08 10:21:30;;;;;;;0.20;0.20;;;;;;;11.80;100.00;96062.06;4914480;29;20062;-76
2022/11/08 10:24:28;;;;;;;0.10;0.10;;;;;;;11.91;100.00;96069.06;4914081;29;20737;-76
2022/11/08 10:27:37;;;;;;;0.13;0.13;;;;;;;11.87;100.00;96072.53;4916901;29;20176;-76
2022/11/08 10:30:33;;;;;;;0.20;0.20;;;;;;;11.67;100.00;96073.25;4914680;29;20708;-76
2022/11/08 10:33:44;;;;;;;0.20;0.20;;;;;;;11.10;100.00;96066.88;4917934;29;20495;-75
2022/11/08 10:36:38;;;;;;;0.20;0.20;;;;;;;11.07;100.00;96061.25;4918642;29;20043;-76
2022/11/08 10:39:27;;;;;;;0.10;0.10;;;;;;;10.64;100.00;96073.03;4916725;29;20126;-75
2022/11/08 10:42:19;;;;;;;0.10;0.10;;;;;;;10.55;100.00;96076.22;4918399;29;20056;-75
2022/11/08 10:45:08;;;;;;;0.10;0.10;;;;;;;10.41;100.00;96068.88;4917101;29;20447;-75
2022/11/08 10:47:54;;;;;;;0.10;0.10;;;;;;;10.38;100.00;96058.69;4913981;29;20070;-76
2022/11/08 10:50:52;;;;;;;0.10;0.10;;;;;;;10.48;100.00;96051.53;4927938;28;20043;-75
2022/11/08 10:53:42;;;;;;;0.17;0.17;;;;;;;10.48;100.00;96058.75;4893728;28;20071;-75
2022/11/08 10:56:28;;;;;;;0.15;0.15;;;;;;;10.48;100.00;96051.53;4915832;29;20044;-76
2022/11/08 10:59:31;;;;;;;0.10;0.10;;;;;;;10.52;100.00;96049.19;4915562;29;20079;-76
2022/11/08 11:02:34;;;;;;;0.10;0.10;;;;;;;10.29;100.00;96051.16;4917349;29;20426;-76
2022/11/08 11:05:23;;;;;;;0.10;0.10;;;;;;;10.43;100.00;96042.69;4917817;29;20075;-76
2022/11/08 11:08:09;;;;;;;0.10;0.10;;;;;;;10.50;100.00;96057.44;4917106;29;20040;-76
2022/11/08 11:10:55;;;;;;;0.10;0.10;;;;;;;10.50;100.00;96048.59;4917613;29;20086;-75
2022/11/08 11:13:41;;;;;;;0.20;0.20;;;;;;;10.52;100.00;96041.94;4918027;29;20039;-76
2022/11/08 11:16:27;;;;;;;0.10;0.10;;;;;;;10.43;100.00;96038.16;4918341;29;20771;-76
2022/11/08 11:19:14;;;;;;;0.20;0.20;;;;;;;10.70;100.00;96031.88;4903212;29;20472;-76
2022/11/08 11:22:04;;;;;;;0.22;0.20;;;;;;;10.72;100.00;96024.41;4916275;29;20043;-76
2022/11/08 11:24:51;;;;;;;0.15;0.15;;;;;;;10.66;100.00;96028.09;4916918;29;20160;-75
2022/11/08 11:27:37;;;;;;;0.10;0.10;;;;;;;10.84;100.00;96023.13;4919050;29;22241;-76
2022/11/08 11:30:27;;;;;;;0.10;0.10;;;;;;;11.02;100.00;96018.38;4918470;29;20410;-76
2022/11/08 11:33:25;;;;;;;0.10;0.10;;;;;;;11.09;100.00;96021.63;4931513;28;20051;-76
2022/11/08 11:36:17;;;;;;;0.10;0.10;;;;;;;11.28;100.00;96016.59;4918643;29;20047;-76
2022/11/08 11:39:24;;;;;;;0.10;0.10;;;;;;;11.58;100.00;96022.03;4917229;29;20044;-76
2022/11/08 11:42:27;;;;;;;0.10;0.10;;;;;;;11.62;100.00;96006.25;4922357;28;20229;-75
2022/11/08 11:45:18;;;;;;;0.10;0.10;;;;;;;11.35;100.00;95999.22;4917786;29;20102;-76
2022/11/08 11:48:13;;;;;;;0.15;0.15;;;;;;;11.31;100.00;96016.09;4895649;29;20392;-77
2022/11/08 11:51:00;;;;;;;0.10;0.10;;;;;;;11.35;100.00;96012.59;4917447;29;20383;-76
2022/11/08 11:53:46;;;;;;;0.10;0.10;;;;;;;11.30;100.00;96014.47;4915888;29;20725;-77
2022/11/08 11:56:41;;;;;;;0.15;0.15;;;;;;;11.40;100.00;96007.28;4916272;29;20461;-76
2022/11/08 11:59:45;;;;;;;0.20;0.10;;;;;;;11.04;100.00;96008.22;4577314;29;10000095;-75
2022/11/08 12:03:04;;;;;;;0.10;0.10;;;;;;;10.99;100.00;96005.53;4916466;29;20047;-76
2022/11/08 12:06:27;;;;;;;0.10;0.10;;;;;;;10.91;100.00;96000.69;4915791;29;20423;-76
2022/11/08 12:09:22;;;;;;;0.10;0.10;;;;;;;10.97;100.00;95984.38;4914557;29;20048;-77
2022/11/08 12:12:22;;;;;;;0.10;0.10;;;;;;;11.10;100.00;95991.09;4913706;29;20054;-75
2022/11/08 12:15:28;;;;;;;0.10;0.10;;;;;;;11.28;100.00;95979.91;4899287;29;20084;-76
2022/11/08 12:18:23;;;;;;;0.15;0.13;;;;;;;11.29;100.00;95989.56;4913629;29;20284;-75
2022/11/08 12:21:33;;;;;;;0.10;0.10;;;;;;;11.23;100.00;95992.50;4914856;29;20693;-75
2022/11/08 12:24:44;;;;;;;0.10;0.10;;;;;;;11.38;100.00;95990.66;4912810;29;20059;-74
2022/11/08 12:27:46;;;;;;;0.10;0.10;;;;;;;11.40;100.00;95993.88;4914192;29;20047;-75
2022/11/08 12:30:49;;;;;;;0.10;0.10;;;;;;;11.37;100.00;95988.25;4912185;29;20048;-75
2022/11/08 12:33:47;;;;;;;0.10;0.10;;;;;;;11.34;100.00;95994.13;4926103;28;20290;-74
2022/11/08 12:36:47;;;;;;;0.10;0.10;;;;;;;11.33;100.00;95987.97;4914800;29;20423;-76
2022/11/08 12:39:43;;;;;;;0.10;0.10;;;;;;;11.29;100.00;95968.16;4913961;29;20043;-76
2022/11/08 12:42:43;;;;;;;0.10;0.10;;;;;;;11.33;100.00;95958.50;4914602;29;20135;-75
2022/11/08 12:45:32;;;;;;;0.10;0.10;;;;;;;11.29;100.00;95953.94;4915308;29;20069;-75
2022/11/08 12:48:55;;;;;;;0.10;0.10;;;;;;;11.30;100.00;95951.00;4913772;29;21250;-75
2022/11/08 12:52:02;;;;;;;0.10;0.10;;;;;;;11.35;100.00;95948.31;4913910;29;20044;-75
2022/11/08 12:54:57;;;;;;;0.10;0.10;;;;;;;11.23;100.00;95936.25;4914215;29;20043;-75
2022/11/08 12:57:47;;;;;;;0.10;0.10;;;;;;;11.10;100.00;95951.75;4915221;29;20472;-75
2022/11/08 13:00:36;;;;;;;0.10;0.10;;;;;;;11.06;100.00;95949.88;4884684;28;20056;-76
2022/11/08 13:03:49;;;;;;;0.13;0.13;;;;;;;11.12;100.00;95938.09;4912943;29;20111;-75
2022/11/08 13:07:02;;;;;;;0.10;0.10;;;;;;;11.05;100.00;95934.84;4915853;29;20040;-75
2022/11/08 13:09:59;;;;;;;0.20;0.20;;;;;;;11.06;100.00;95945.31;4916509;29;20043;-75
2022/11/08 13:12:54;;;;;;;0.10;0.10;;;;;;;10.91;100.00;95953.31;4893683;29;20426;-77
2022/11/08 13:16:17;;;;;;;0.10;0.10;;;;;;;10.87;100.00;95947.66;4916395;29;20032;-76
2022/11/08 13:19:05;;;;;;;0.10;0.10;;;;;;;10.80;100.00;95949.75;4913985;29;20094;-76
2022/11/08 13:21:51;;;;;;;0.20;0.20;;;;;;;10.74;100.00;95945.47;4905404;29;20051;-76
2022/11/08 13:24:40;;;;;;;0.10;0.10;;;;;;;10.65;100.00;95939.00;4577191;29;10000112;-76
2022/11/08 13:27:45;;;;;;;0.20;0.20;;;;;;;10.67;100.00;95936.09;4899433;29;20276;-75
2022/11/08 13:30:35;;;;;;;0.10;0.10;;;;;;;10.69;100.00;95932.06;4917444;29;20043;-75
2022/11/08 13:33:28;;;;;;;0.10;0.10;;;;;;;10.66;100.00;95935.28;4913628;29;20039;-76
2022/11/08 13:36:34;;;;;;;0.10;0.10;;;;;;;10.63;100.00;95919.72;4920379;29;20048;-75
2022/11/08 13:39:29;;;;;;;0.10;0.10;;;;;;;10.53;100.00;95933.06;4917062;29;20043;-76